This is the latest recevied weather packets stored in our database for station/object 9A7DI-13. If no packets are shown the sender has not sent any weather packets the latest 10 day(s).
| Time | Temp. | Humidity | Pressure | Rain* | Wind** | Luminosity | Snow |
|---|---|---|---|---|---|---|---|
| 1788116810 | 21.67° C | 64% | 1024 hPa | - | - | - | - |
| 1788116210 | 22.22° C | 61% | 1023.9 hPa | - | - | - | - |
| 1788115610 | 23.33° C | 58% | 1023.8 hPa | - | - | - | - |
| 1788115010 | 22.78° C | 60% | 1023.8 hPa | - | - | - | - |
| 1788114410 | 23.89° C | 58% | 1023.7 hPa | - | - | - | - |
| 1788113210 | 25° C | 54% | 1023.5 hPa | - | - | - | - |
| 1788112610 | 24.44° C | 57% | 1023.3 hPa | - | - | - | - |
| 1788112010 | 26.67° C | 49% | 1023.2 hPa | - | - | - | - |
| 1788111410 | 26.67° C | 47% | 1023.1 hPa | - | - | - | - |
| 1788110818 | 27.22° C | 46% | 1023.1 hPa | - | - | - | - |
| 1788110210 | 28.33° C | 42% | 1023 hPa | - | - | - | - |
| 1788109610 | 28.89° C | 38% | 1022.9 hPa | - | - | - | - |
| 1788109010 | 29.44° C | 36% | 1022.8 hPa | - | - | - | - |
| 1788108410 | 29.44° C | 36% | 1022.7 hPa | - | - | - | - |
| 1788107810 | 30° C | 34% | 1022.8 hPa | - | - | - | - |
| 1788107210 | 30.56° C | 34% | 1022.7 hPa | - | - | - | - |
| 1788106610 | 30.56° C | 34% | 1022.8 hPa | - | - | - | - |
| 1788106010 | 30.56° C | 33% | 1022.8 hPa | - | - | - | - |
| 1788105410 | 30.56° C | 33% | 1022.8 hPa | - | - | - | - |
| 1788104810 | 31.11° C | 33% | 1022.9 hPa | - | - | - | - |
| 1788104210 | 31.11° C | 34% | 1023 hPa | - | - | - | - |
| 1788103611 | 31.11° C | 33% | 1023 hPa | - | - | - | - |
| 1788103010 | 31.11° C | 34% | 1023 hPa | - | - | - | - |
| 1788102410 | 31.11° C | 34% | 1023.1 hPa | - | - | - | - |
| 1788101810 | 31.11° C | 35% | 1023.2 hPa | - | - | - | - |
* Rain since midnight (hover to see other rain measurements)
** Current wind speed in m/s (hover to see current wind gust speed)